• Join FlightAware (Why Join?)
  • Login
  • US Flag 
05:42AM EDT


 

Airport Tracker/Info


-or-


 

Live Flight TrackerFlight Track Log ✈ SWA561 ✈ 04-Jul-2014 ✈ KLAX - KOAK

Flight Track Log - Related Links

Times and Time Zones

All times are in EDT time to prevent confusion due to time zone crossing. See the SWA561 flight status page for this flight to view local times or setup timezone preferences in your user account.

Time Position Orientation Groundspeed Altitude Reporting Facility
EDT Latitude Longitude Course Direction KTS MPH feet Rate Location/Type
01:20PM 33.9333 -118.5500 253° West 258 297 3,800  Level Southern California TRACON
01:22PM 33.9642 -118.6719 287° West 303 349 8,500 2,040 Climbing Los Angeles Center
01:23PM 34.0483 -118.6928 348° North 316 364 9,000 420 Climbing Los Angeles Center
01:24PM 34.1183 -118.6522 26° Northeast 302 348 9,400 1,680 Climbing Los Angeles Center
01:25PM 34.2614 -118.6000 North  Level FlightAware Approximate
01:25PM 34.1992 -118.6153 21° North 307 353 12,500  Level Los Angeles Center
01:26PM 34.2997 -118.6175 359° North 359 413 15,400 3,060 Climbing Los Angeles Center
01:27PM 34.4178 -118.6689 340° North 387 445 18,900 2,880 Climbing Los Angeles Center
01:28PM 34.5206 -118.7186 338° Northwest 398 458 21,400 2,580 Climbing Los Angeles Center
01:29PM 34.6244 -118.7742 336° Northwest 404 465 24,300 2,460 Climbing Los Angeles Center
01:30PM 34.7331 -118.8269 338° Northwest 416 479 26,600 2,040 Climbing Los Angeles Center
01:31PM 34.8397 -118.8969 332° Northwest 440 506 28,600 2,220 Climbing Los Angeles Center
01:32PM 34.9450 -118.9997 321° Northwest 439 505 31,300 2,340 Climbing Los Angeles Center
01:33PM 35.0389 -119.0903 322° Northwest 436 502 33,500 1,200 Climbing Los Angeles Center
01:34PM 35.1306 -119.1836 320° Northwest 431 496 33,900 180 Climbing Los Angeles Center
01:35PM 35.2453 -119.2919 322° Northwest 432 497 33,900  Level Los Angeles Center
01:36PM 35.3386 -119.3831 321° Northwest 433 498 34,000  Climbing Los Angeles Center
01:37PM 35.4339 -119.4772 321° Northwest 435 501 33,900 -60 Descending Los Angeles Center
01:38PM 35.5267 -119.5708 321° Northwest 435 501 33,900  Level Los Angeles Center
01:39PM 35.6203 -119.6639 321° Northwest 435 501 33,900  Level Los Angeles Center
01:40PM 35.6933 -119.7378 321° Northwest 436 502 34,000  Climbing Oakland Center
01:41PM 35.7867 -119.8311 321° Northwest 436 502 34,000  Level Oakland Center
01:42PM 35.8806 -119.9258 321° Northwest 438 504 34,000  Level Oakland Center
01:43PM 35.9742 -120.0192 321° Northwest 437 503 34,000 -60 Level Oakland Center
01:44PM 36.0664 -120.1139 320° Northwest 437 503 33,900  Descending Oakland Center
01:45PM 36.1581 -120.2069 321° Northwest 434 499 34,000  Climbing Oakland Center
01:46PM 36.2686 -120.3186 321° Northwest 431 496 33,900 -1,080 Descending Oakland Center
01:47PM 36.3572 -120.4111 320° Northwest 422 486 31,900 -1,860 Descending Oakland Center
01:48PM 36.4444 -120.5014 320° Northwest 414 476 30,100 -1,800 Descending Oakland Center
01:49PM 36.5278 -120.5872 320° Northwest 399 459 28,300 -1,800 Descending Oakland Center
01:50PM 36.6100 -120.6672 322° Northwest 385 443 26,500 -1,800 Descending Oakland Center
01:51PM 36.6908 -120.7528 320° Northwest 383 441 24,700 -1,800 Descending Oakland Center
01:52PM 36.7664 -120.8364 318° Northwest 373 429 22,900 -1,800 Descending Oakland Center
01:53PM 36.8453 -120.9303 316° Northwest 365 420 21,100 -1,800 Descending Oakland Center
01:54PM 36.9186 -121.0139 318° Northwest 361 415 19,300 -1,680 Descending Oakland Center
01:55PM 36.9908 -121.0981 317° Northwest 356 410 17,800 -1,800 Descending Oakland Center
01:56PM 37.0706 -121.1881 318° Northwest 355 409 15,700 -1,920 Descending Oakland Center
01:57PM 37.1358 -121.2608 318° Northwest 352 405 13,900 -2,100 Descending Oakland Center
01:58PM 37.2211 -121.3617 317° Northwest 352 405 11,500 -1,860 Descending Oakland Center
01:59PM 37.2897 -121.4428 317° Northwest 344 396 10,200 -1,320 Descending Oakland Center
02:01PM 37.3517 -121.5136 318° Northwest 309 356 8,900 -1,320 Descending Oakland Center
02:01PM 37.4167 -121.5833 320° Northwest 297 342 7,700 -1,020 Descending Northern Cal TRACON
02:02PM 37.4667 -121.6500 313° West 294 338 7,000 -420 Descending Northern Cal TRACON
02:03PM 37.5167 -121.7333 307° West 290 334 6,900 -600 Descending Northern Cal TRACON
02:04PM 37.5500 -121.8167 297° West 283 326 5,800 -900 Descending Northern Cal TRACON
02:05PM 37.5667 -121.9167 282° West 280 322 5,200 -600 Descending Northern Cal TRACON
02:06PM 37.5833 -122.0000 284° West 267 307 4,700 -540 Descending Northern Cal TRACON
02:07PM 37.6000 -122.0833 284° West 188 216 4,200 -1,200 Descending Northern Cal TRACON
02:08PM 37.6333 -122.1167 322° Northwest 170 196 2,300 -1,500 Descending Northern Cal TRACON
02:09PM 37.6667 -122.1667 310° West 146 168 1,200 -900 Descending Northern Cal TRACON
02:10PM 37.6833 -122.2000 302° West 130 150 500 -720 Descending Northern Cal TRACON
02:13PM 37.7167 -122.2167 270° West  Level FlightAware Approximate
02:20PM 37.7228 -122.2215 270° West  Level Estimated